createdAt,value
2023-05-10T00:00:07.034Z,16.27
2023-05-10T00:02:41.340Z,16.13
2023-05-10T00:05:09.116Z,16.55
2023-05-10T00:07:36.486Z,17.15
2023-05-10T00:10:03.879Z,14.98
2023-05-10T00:12:31.281Z,17.35
2023-05-10T00:14:58.680Z,16.15
2023-05-10T00:17:26.201Z,16.20
2023-05-10T00:19:53.563Z,13.35
2023-05-10T00:22:21.177Z,14.43
2023-05-10T00:24:48.549Z,14.98
2023-05-10T00:27:16.241Z,15.80
2023-05-10T00:29:43.915Z,15.35
2023-05-10T00:32:11.660Z,17.17
2023-05-10T00:34:39.124Z,14.25
2023-05-10T00:37:06.908Z,15.50
2023-05-10T00:39:34.408Z,13.85
2023-05-10T00:42:01.816Z,13.40
2023-05-10T00:44:29.639Z,13.27
2023-05-10T00:46:57.642Z,14.07
2023-05-10T00:49:25.062Z,15.10
2023-05-10T00:51:52.528Z,14.98
2023-05-10T00:54:19.969Z,13.40
2023-05-10T00:56:50.123Z,19.55
2023-05-10T00:59:18.851Z,14.50
2023-05-10T01:01:49.940Z,13.77
2023-05-10T01:04:17.797Z,15.65
2023-05-10T01:06:45.267Z,18.08
2023-05-10T01:09:13.004Z,16.35
2023-05-10T01:11:41.965Z,13.20
2023-05-10T01:14:09.604Z,14.27
2023-05-10T01:16:39.165Z,14.02
2023-05-10T01:19:10.172Z,13.40
2023-05-10T01:21:42.580Z,13.57
2023-05-10T01:24:19.061Z,14.23
2023-05-10T01:27:05.595Z,17.23
2023-05-10T01:29:32.993Z,13.98
2023-05-10T01:32:00.885Z,16.27
2023-05-10T01:34:39.288Z,15.05
2023-05-10T01:37:11.691Z,15.13
2023-05-10T01:39:39.155Z,16.33
2023-05-10T01:42:06.601Z,15.90
2023-05-10T01:44:49.221Z,14.65
2023-05-10T01:47:21.903Z,14.48
2023-05-10T01:49:52.126Z,13.55
2023-05-10T01:52:27.953Z,15.32
2023-05-10T01:55:03.963Z,15.50
2023-05-10T01:57:34.779Z,15.18
2023-05-10T02:00:04.703Z,15.93
2023-05-10T02:02:43.304Z,15.65
2023-05-10T02:05:13.623Z,18.15
2023-05-10T02:07:41.166Z,15.90
2023-05-10T02:10:09.385Z,16.02
2023-05-10T02:12:37.750Z,16.52
2023-05-10T02:15:07.299Z,20.60
2023-05-10T02:17:36.422Z,17.70
2023-05-10T02:20:05.267Z,18.67
2023-05-10T02:22:33.338Z,19.25
2023-05-10T02:25:01.560Z,20.80
2023-05-10T02:27:29.601Z,19.77
2023-05-10T02:29:57.649Z,17.67
2023-05-10T02:32:28.142Z,22.73
2023-05-10T02:34:56.347Z,21.10
2023-05-10T02:37:24.416Z,19.45
2023-05-10T02:39:52.630Z,21.63
2023-05-10T02:42:22.041Z,21.33
2023-05-10T02:44:50.457Z,20.38
2023-05-10T02:47:18.034Z,24.77
2023-05-10T02:49:45.540Z,20.83
2023-05-10T02:52:17.996Z,26.77
2023-05-10T02:54:51.368Z,27.42
2023-05-10T02:57:20.358Z,21.40
2023-05-10T02:59:47.830Z,20.77
2023-05-10T03:02:15.696Z,21.10
2023-05-10T03:04:43.131Z,22.25
2023-05-10T03:07:10.989Z,19.80
2023-05-10T03:09:38.462Z,19.55
2023-05-10T03:12:09.716Z,18.27
2023-05-10T03:14:55.285Z,18.95
2023-05-10T03:17:38.244Z,20.00
2023-05-10T03:20:08.934Z,20.63
2023-05-10T03:22:46.132Z,17.17
2023-05-10T03:25:14.075Z,20.45
2023-05-10T03:27:43.377Z,17.85
2023-05-10T03:30:13.625Z,18.27
2023-05-10T03:32:41.572Z,17.90
2023-05-10T03:35:10.122Z,17.77
2023-05-10T03:37:38.405Z,21.23
2023-05-10T03:40:06.863Z,18.15
2023-05-10T03:42:36.879Z,19.15
2023-05-10T03:45:04.518Z,17.63
2023-05-10T03:47:32.681Z,15.77
2023-05-10T03:50:00.657Z,16.65
2023-05-10T03:52:28.173Z,20.60
2023-05-10T03:54:56.730Z,17.38
2023-05-10T03:57:24.917Z,18.25
2023-05-10T03:59:52.524Z,18.92
2023-05-10T04:02:19.922Z,17.98
2023-05-10T04:04:47.488Z,17.55
2023-05-10T04:07:14.915Z,16.58
2023-05-10T04:09:42.425Z,16.27
2023-05-10T04:12:10.961Z,17.05
2023-05-10T04:14:38.655Z,16.98
2023-05-10T04:17:06.703Z,19.52
2023-05-10T04:19:34.265Z,16.70
2023-05-10T04:22:01.623Z,16.08
2023-05-10T04:24:29.148Z,22.10
2023-05-10T04:26:57.900Z,21.77
2023-05-10T04:29:25.566Z,19.67
2023-05-10T04:31:53.029Z,22.77
2023-05-10T04:34:22.124Z,21.00
2023-05-10T04:36:49.532Z,21.42
2023-05-10T04:39:16.929Z,23.55
2023-05-10T04:41:44.320Z,23.08
2023-05-10T04:44:11.745Z,27.23
2023-05-10T04:46:39.238Z,23.00
2023-05-10T04:49:06.747Z,26.45
2023-05-10T04:51:34.249Z,21.20
2023-05-10T04:54:06.446Z,19.95
2023-05-10T04:56:34.638Z,22.83
2023-05-10T04:59:02.221Z,20.40
2023-05-10T05:01:31.103Z,19.65
2023-05-10T05:03:58.821Z,20.38
2023-05-10T05:06:28.276Z,20.42
2023-05-10T05:08:55.910Z,20.23
2023-05-10T05:11:23.393Z,24.45
2023-05-10T05:13:50.794Z,18.20
2023-05-10T05:16:18.260Z,18.63
2023-05-10T05:18:45.652Z,18.70
2023-05-10T05:21:17.112Z,20.33
2023-05-10T05:23:45.177Z,20.85
2023-05-10T05:26:12.733Z,21.15
2023-05-10T05:28:40.200Z,20.08
2023-05-10T05:31:08.772Z,21.15
2023-05-10T05:33:36.513Z,18.67
2023-05-10T05:36:07.216Z,22.35
2023-05-10T05:38:34.803Z,21.67
2023-05-10T05:41:02.413Z,20.05
2023-05-10T05:43:29.964Z,24.48
2023-05-10T05:45:59.083Z,25.13
2023-05-10T05:48:26.773Z,21.08
2023-05-10T05:51:00.341Z,26.55
2023-05-10T05:53:27.784Z,21.42
2023-05-10T05:55:59.468Z,20.30
2023-05-10T05:58:27.975Z,15.45
2023-05-10T06:00:55.487Z,12.80
2023-05-10T06:03:23.038Z,15.60
2023-05-10T06:05:50.685Z,13.60
2023-05-10T06:08:18.251Z,15.70
2023-05-10T06:10:46.383Z,17.45
2023-05-10T06:13:14.098Z,15.13
2023-05-10T06:15:41.740Z,13.75
2023-05-10T06:18:09.298Z,16.02
2023-05-10T06:20:36.798Z,16.00
2023-05-10T06:23:04.297Z,15.75
2023-05-10T06:25:31.703Z,15.73
2023-05-10T06:27:59.239Z,13.20
2023-05-10T06:30:29.861Z,14.05
2023-05-10T06:32:58.022Z,13.75
2023-05-10T06:35:25.754Z,12.68
2023-05-10T06:37:53.457Z,13.90
2023-05-10T06:40:20.964Z,12.88
2023-05-10T06:42:48.837Z,13.85
2023-05-10T06:45:16.972Z,14.23
2023-05-10T06:47:44.875Z,11.52
2023-05-10T06:50:12.647Z,12.88
2023-05-10T06:52:40.567Z,8.93
2023-05-10T06:55:08.127Z,10.82
2023-05-10T06:57:35.538Z,11.48
2023-05-10T07:00:05.218Z,9.93
2023-05-10T07:02:32.873Z,9.40
2023-05-10T07:05:02.744Z,10.48
2023-05-10T07:07:31.067Z,8.50
2023-05-10T07:09:58.767Z,9.43
2023-05-10T07:12:26.626Z,8.07
2023-05-10T07:14:54.318Z,10.27
2023-05-10T07:17:21.855Z,9.50
2023-05-10T07:19:49.556Z,10.07
2023-05-10T07:22:17.769Z,11.10
2023-05-10T07:24:46.578Z,8.02
2023-05-10T07:27:14.188Z,6.93
2023-05-10T07:29:41.670Z,7.22
2023-05-10T07:32:09.178Z,9.15
2023-05-10T07:34:36.825Z,7.75
2023-05-10T07:37:04.311Z,6.80
2023-05-10T07:39:31.763Z,6.40
2023-05-10T07:41:59.131Z,7.07
2023-05-10T07:44:26.529Z,8.35
2023-05-10T07:46:53.958Z,7.70
2023-05-10T07:49:21.471Z,10.40
2023-05-10T07:51:48.877Z,8.15
2023-05-10T07:54:16.313Z,6.25
2023-05-10T07:56:48.284Z,7.45
2023-05-10T07:59:19.593Z,8.73
2023-05-10T08:01:47.082Z,12.35
2023-05-10T08:04:14.603Z,5.80
2023-05-10T08:06:42.123Z,8.05
2023-05-10T08:09:10.005Z,8.07
2023-05-10T08:11:37.447Z,7.25
2023-05-10T08:14:04.854Z,6.75
2023-05-10T08:16:33.510Z,8.15
2023-05-10T08:19:01.060Z,5.80
2023-05-10T08:21:28.580Z,5.50
2023-05-10T08:23:56.052Z,4.85
2023-05-10T08:26:23.620Z,5.88
2023-05-10T08:28:51.019Z,6.65
2023-05-10T08:31:19.711Z,6.18
2023-05-10T08:33:47.135Z,5.72
2023-05-10T08:36:20.578Z,5.82
2023-05-10T08:38:48.404Z,7.20
2023-05-10T08:41:17.210Z,3.17
2023-05-10T08:43:47.149Z,7.30
2023-05-10T08:46:20.728Z,6.22
2023-05-10T08:48:49.371Z,4.65
2023-05-10T08:51:19.082Z,4.80
2023-05-10T08:53:46.994Z,7.82
2023-05-10T08:56:14.457Z,6.75
2023-05-10T08:58:41.934Z,5.18
2023-05-10T09:01:09.543Z,7.82
2023-05-10T09:03:37.266Z,4.32
2023-05-10T09:06:04.721Z,4.85
2023-05-10T09:08:32.552Z,5.10
2023-05-10T09:11:02.562Z,5.15
2023-05-10T09:13:30.235Z,5.47
2023-05-10T09:16:00.371Z,4.25
2023-05-10T09:18:32.029Z,3.67
2023-05-10T09:20:59.422Z,5.30
2023-05-10T09:23:33.122Z,6.28
2023-05-10T09:26:05.665Z,4.60
2023-05-10T09:28:33.595Z,4.53
2023-05-10T09:31:01.078Z,4.00
2023-05-10T09:33:28.553Z,8.02
2023-05-10T09:35:56.049Z,4.43
2023-05-10T09:38:23.816Z,5.13
2023-05-10T09:40:55.514Z,5.13
2023-05-10T09:43:22.957Z,5.85
2023-05-10T09:45:51.318Z,6.57
2023-05-10T09:48:18.795Z,4.90
2023-05-10T09:50:46.200Z,6.20
2023-05-10T09:53:17.651Z,5.50
2023-05-10T09:55:46.733Z,6.63
2023-05-10T09:58:15.326Z,5.80
2023-05-10T10:00:48.755Z,6.97
2023-05-10T10:03:17.701Z,5.10
2023-05-10T10:05:45.827Z,4.00
2023-05-10T10:08:13.641Z,4.97
2023-05-10T10:10:41.696Z,6.28
2023-05-10T10:13:10.447Z,4.85
2023-05-10T10:15:37.996Z,4.68
2023-05-10T10:18:06.992Z,4.20
2023-05-10T10:20:35.410Z,4.22
2023-05-10T10:23:02.816Z,6.40
2023-05-10T10:25:30.245Z,7.32
2023-05-10T10:28:04.853Z,10.38
2023-05-10T10:30:32.436Z,8.30
2023-05-10T10:33:27.213Z,4.90
2023-05-10T10:35:56.522Z,3.47
2023-05-10T10:38:23.975Z,6.80
2023-05-10T10:41:03.347Z,7.07
2023-05-10T10:43:31.387Z,5.18
2023-05-10T10:46:18.727Z,5.45
2023-05-10T10:48:50.370Z,4.45
2023-05-10T10:51:17.837Z,4.60
2023-05-10T10:53:46.233Z,4.90
2023-05-10T10:56:20.296Z,5.80
2023-05-10T10:58:54.828Z,6.40
2023-05-10T11:01:22.808Z,2.75
2023-05-10T11:04:16.394Z,4.95
2023-05-10T11:06:43.948Z,3.40
2023-05-10T11:09:14.557Z,3.47
2023-05-10T11:11:53.343Z,3.70
2023-05-10T11:14:23.708Z,4.00
2023-05-10T11:16:51.287Z,5.38
2023-05-10T11:19:19.156Z,5.15
2023-05-10T11:21:50.843Z,3.17
2023-05-10T11:24:23.000Z,4.28
2023-05-10T11:26:53.591Z,3.15
2023-05-10T11:29:21.679Z,3.35
2023-05-10T11:31:49.596Z,5.35
2023-05-10T11:34:26.306Z,3.63
2023-05-10T11:36:54.919Z,2.65
2023-05-10T11:39:22.956Z,4.38
2023-05-10T11:41:51.020Z,3.60
2023-05-10T11:44:18.477Z,4.00
2023-05-10T11:46:46.172Z,5.32
2023-05-10T11:49:14.361Z,4.07
2023-05-10T11:51:43.566Z,4.30
2023-05-10T11:54:12.567Z,4.10
2023-05-10T11:56:40.856Z,4.88
2023-05-10T11:59:09.238Z,2.60
2023-05-10T12:01:37.038Z,4.05
2023-05-10T12:04:04.658Z,3.10
2023-05-10T12:06:33.525Z,3.13
2023-05-10T12:09:01.366Z,4.70
2023-05-10T12:11:29.619Z,4.05
2023-05-10T12:13:57.890Z,3.33
2023-05-10T12:16:27.025Z,8.00
2023-05-10T12:18:55.807Z,4.53
2023-05-10T12:21:23.288Z,3.58
2023-05-10T12:23:52.704Z,4.57
2023-05-10T12:26:21.044Z,6.35
2023-05-10T12:28:48.543Z,3.20
2023-05-10T12:31:16.112Z,3.45
2023-05-10T12:33:45.003Z,3.17
2023-05-10T12:36:13.825Z,4.63
2023-05-10T12:38:44.183Z,4.20
2023-05-10T12:41:12.972Z,3.65
2023-05-10T12:43:41.561Z,2.03
2023-05-10T12:46:13.318Z,2.10
2023-05-10T12:48:41.292Z,2.92
2023-05-10T12:51:10.612Z,2.28
2023-05-10T12:53:38.123Z,2.30
2023-05-10T12:56:06.012Z,4.15
2023-05-10T12:58:35.948Z,4.70
2023-05-10T13:01:05.186Z,2.72
2023-05-10T13:03:32.729Z,3.55
2023-05-10T13:06:00.204Z,3.22
2023-05-10T13:08:27.818Z,3.60
2023-05-10T13:10:55.270Z,3.42
2023-05-10T13:13:22.853Z,5.20
2023-05-10T13:15:50.211Z,2.88
2023-05-10T13:18:17.853Z,2.78
2023-05-10T13:20:45.526Z,4.38
2023-05-10T13:23:13.023Z,2.20
2023-05-10T13:25:40.622Z,4.75
2023-05-10T13:28:08.112Z,3.80
2023-05-10T13:30:35.545Z,5.18
2023-05-10T13:33:03.182Z,4.55
2023-05-10T13:35:30.592Z,5.32
2023-05-10T13:37:58.761Z,5.35
2023-05-10T13:40:26.589Z,3.65
2023-05-10T13:42:54.084Z,3.78
2023-05-10T13:45:21.856Z,4.72
2023-05-10T13:47:49.708Z,4.25
2023-05-10T13:50:17.224Z,2.78
2023-05-10T13:52:44.688Z,4.28
2023-05-10T13:55:14.196Z,3.53
2023-05-10T13:57:41.901Z,5.53
2023-05-10T14:00:09.614Z,2.92
2023-05-10T14:02:37.188Z,5.40
2023-05-10T14:05:04.799Z,2.22
2023-05-10T14:07:32.244Z,3.42
2023-05-10T14:09:59.597Z,3.17
2023-05-10T14:12:27.395Z,4.10
2023-05-10T14:14:54.787Z,2.20
2023-05-10T14:17:23.102Z,3.92
2023-05-10T14:19:50.492Z,2.25
2023-05-10T14:22:18.070Z,3.08
2023-05-10T14:24:47.799Z,2.60
2023-05-10T14:27:15.727Z,2.42
2023-05-10T14:29:43.401Z,4.90
2023-05-10T14:32:11.537Z,4.63
2023-05-10T14:34:39.003Z,4.20
2023-05-10T14:37:07.073Z,2.03
2023-05-10T14:39:34.519Z,4.35
2023-05-10T14:42:03.617Z,3.00
2023-05-10T14:44:31.556Z,3.03
2023-05-10T14:46:58.938Z,3.42
2023-05-10T14:49:27.176Z,3.72
2023-05-10T14:51:54.688Z,2.53
2023-05-10T14:54:22.368Z,2.08
2023-05-10T14:56:51.008Z,2.90
2023-05-10T14:59:18.490Z,5.07
2023-05-10T15:01:46.640Z,3.28
2023-05-10T15:04:17.095Z,3.70
2023-05-10T15:06:45.272Z,2.10
2023-05-10T15:09:12.615Z,4.22
2023-05-10T15:11:40.157Z,3.88
2023-05-10T15:14:07.618Z,4.40
2023-05-10T15:16:36.262Z,4.45
2023-05-10T15:19:03.993Z,7.15
2023-05-10T15:21:36.060Z,2.63
2023-05-10T15:24:03.843Z,4.50
2023-05-10T15:26:31.304Z,3.75
2023-05-10T15:28:58.793Z,4.68
2023-05-10T15:31:26.322Z,7.10
2023-05-10T15:33:57.816Z,13.05
2023-05-10T15:36:25.293Z,4.72
2023-05-10T15:38:52.658Z,6.63
2023-05-10T15:41:20.113Z,6.47
2023-05-10T15:43:47.554Z,4.93
2023-05-10T15:46:15.086Z,4.95
2023-05-10T15:48:42.884Z,4.88
2023-05-10T15:51:14.935Z,6.05
2023-05-10T15:53:56.553Z,4.85
2023-05-10T15:58:55.469Z,6.05
2023-05-10T16:01:23.052Z,8.85
2023-05-10T16:03:50.572Z,5.10
2023-05-10T16:06:18.185Z,7.38
2023-05-10T16:08:45.555Z,5.07
2023-05-10T16:11:13.051Z,6.60
2023-05-10T16:13:40.515Z,3.58
2023-05-10T16:16:08.983Z,4.97
2023-05-10T16:18:36.797Z,5.65
2023-05-10T16:21:04.488Z,3.67
2023-05-10T16:23:32.155Z,4.72
2023-05-10T16:25:59.715Z,2.83
2023-05-10T16:28:27.103Z,3.92
2023-05-10T16:30:54.687Z,4.10
2023-05-10T16:33:22.059Z,4.97
2023-05-10T16:35:49.488Z,6.45
2023-05-10T16:38:17.168Z,5.22
2023-05-10T16:40:44.618Z,4.93
2023-05-10T16:43:11.993Z,7.25
2023-05-10T16:45:39.641Z,13.55
2023-05-10T16:48:07.440Z,6.72
2023-05-10T16:50:34.892Z,6.88
2023-05-10T16:53:02.353Z,5.13
2023-05-10T16:55:29.762Z,5.18
2023-05-10T16:57:59.797Z,3.92
2023-05-10T17:00:27.850Z,5.22
2023-05-10T17:02:55.373Z,5.60
2023-05-10T17:05:23.188Z,4.45
2023-05-10T17:07:50.712Z,5.93
2023-05-10T17:10:18.148Z,8.35
2023-05-10T17:12:46.400Z,6.45
2023-05-10T17:15:13.896Z,7.25
2023-05-10T17:17:41.347Z,8.38
2023-05-10T17:20:09.201Z,13.88
2023-05-10T17:22:36.644Z,6.97
2023-05-10T17:25:04.325Z,6.53
2023-05-10T17:27:31.841Z,4.30
2023-05-10T17:29:59.489Z,6.47
2023-05-10T17:32:27.032Z,5.32
2023-05-10T17:34:55.101Z,7.47
2023-05-10T17:37:22.987Z,4.03
2023-05-10T17:39:50.546Z,5.93
2023-05-10T17:42:19.039Z,4.97
2023-05-10T17:44:46.425Z,4.43
2023-05-10T17:47:13.877Z,9.23
2023-05-10T17:49:41.470Z,12.13
2023-05-10T17:52:08.959Z,14.95
2023-05-10T17:54:36.370Z,14.75
2023-05-10T17:57:03.897Z,21.48
2023-05-10T17:59:31.388Z,15.48
2023-05-10T18:01:58.939Z,6.43
2023-05-10T18:04:26.407Z,8.35
2023-05-10T18:07:01.392Z,5.43
2023-05-10T18:11:56.715Z,6.03
2023-05-10T18:14:36.527Z,5.53
2023-05-10T18:17:08.154Z,6.18
2023-05-10T18:19:35.790Z,5.70
2023-05-10T18:22:03.330Z,5.78
2023-05-10T18:24:39.659Z,4.57
2023-05-10T18:27:09.037Z,6.63
2023-05-10T18:29:36.856Z,7.97
2023-05-10T18:32:04.396Z,5.82
2023-05-10T18:34:31.946Z,6.53
2023-05-10T18:37:00.277Z,6.55
2023-05-10T18:39:27.674Z,7.97
2023-05-10T18:41:55.220Z,6.75
2023-05-10T18:44:25.958Z,10.13
2023-05-10T18:46:54.335Z,8.50
2023-05-10T18:49:21.848Z,7.78
2023-05-10T18:51:50.726Z,6.60
2023-05-10T18:54:18.333Z,7.22
2023-05-10T18:56:45.745Z,6.68
2023-05-10T18:59:13.378Z,10.15
2023-05-10T19:01:44.003Z,18.85
2023-05-10T19:04:11.497Z,15.80
2023-05-10T19:06:38.910Z,12.82
2023-05-10T19:09:06.362Z,8.13
2023-05-10T19:11:34.549Z,7.60
2023-05-10T19:14:02.708Z,9.68
2023-05-10T19:16:30.558Z,7.78
2023-05-10T19:18:58.276Z,7.65
2023-05-10T19:21:26.096Z,6.40
2023-05-10T19:23:53.664Z,9.48
2023-05-10T19:26:21.815Z,8.05
2023-05-10T19:28:52.142Z,9.57
2023-05-10T19:31:19.899Z,6.30
2023-05-10T19:33:47.501Z,8.82
2023-05-10T19:36:15.031Z,7.80
2023-05-10T19:38:42.665Z,6.95
2023-05-10T19:41:11.355Z,8.45
2023-05-10T19:43:39.810Z,7.60
2023-05-10T19:46:08.977Z,7.47
2023-05-10T19:48:36.480Z,6.45
2023-05-10T19:51:07.688Z,6.72
2023-05-10T19:53:36.799Z,7.97
2023-05-10T19:56:07.696Z,7.38
2023-05-10T19:58:35.190Z,5.72
2023-05-10T20:01:02.730Z,9.55
2023-05-10T20:03:30.352Z,9.30
2023-05-10T20:05:57.826Z,8.68
2023-05-10T20:08:25.627Z,8.02
2023-05-10T20:10:53.132Z,6.82
2023-05-10T20:13:20.660Z,7.80
2023-05-10T20:15:48.053Z,8.27
2023-05-10T20:18:15.506Z,6.28
2023-05-10T20:20:43.231Z,6.25
2023-05-10T20:23:10.785Z,10.18
2023-05-10T20:25:38.173Z,6.82
2023-05-10T20:28:05.961Z,7.75
2023-05-10T20:30:33.361Z,8.15
2023-05-10T20:33:01.183Z,7.20
2023-05-10T20:35:28.676Z,6.80
2023-05-10T20:37:56.192Z,7.70
2023-05-10T20:40:23.695Z,9.60
2023-05-10T20:42:53.915Z,6.13
2023-05-10T20:45:21.427Z,6.43
2023-05-10T20:47:51.788Z,7.40
2023-05-10T20:50:19.449Z,6.63
2023-05-10T20:52:47.193Z,5.95
2023-05-10T20:55:14.642Z,7.18
2023-05-10T20:57:42.012Z,6.07
2023-05-10T21:00:09.831Z,7.35
2023-05-10T21:02:37.259Z,5.18
2023-05-10T21:05:05.254Z,5.78
2023-05-10T21:07:32.924Z,8.45
2023-05-10T21:10:00.630Z,7.18
2023-05-10T21:12:28.055Z,5.28
2023-05-10T21:14:55.610Z,8.32
2023-05-10T21:17:23.106Z,6.72
2023-05-10T21:19:50.795Z,6.78
2023-05-10T21:22:18.181Z,6.72
2023-05-10T21:24:45.683Z,7.90
2023-05-10T21:27:13.422Z,6.53
2023-05-10T21:29:40.956Z,6.18
2023-05-10T21:32:08.347Z,6.70
2023-05-10T21:34:35.989Z,6.32
2023-05-10T21:37:03.467Z,8.32
2023-05-10T21:39:30.837Z,8.45
2023-05-10T21:41:59.810Z,7.07
2023-05-10T21:44:27.196Z,5.38
2023-05-10T21:46:54.662Z,10.10
2023-05-10T21:49:22.306Z,6.55
2023-05-10T21:51:49.764Z,6.80
2023-05-10T21:54:17.103Z,5.45
2023-05-10T21:56:44.988Z,5.43
2023-05-10T21:59:12.469Z,5.55
2023-05-10T22:01:39.973Z,6.70
2023-05-10T22:04:07.450Z,6.93
2023-05-10T22:06:34.859Z,4.55
2023-05-10T22:09:02.362Z,7.88
2023-05-10T22:11:29.800Z,5.50
2023-05-10T22:13:57.228Z,8.80
2023-05-10T22:16:24.978Z,7.40
2023-05-10T22:18:54.194Z,7.60
2023-05-10T22:21:21.834Z,8.07
2023-05-10T22:23:49.211Z,6.03
2023-05-10T22:26:16.734Z,6.93
2023-05-10T22:28:44.087Z,10.15
2023-05-10T22:31:11.771Z,6.78
2023-05-10T22:33:39.367Z,6.38
2023-05-10T22:36:07.213Z,7.65
2023-05-10T22:38:34.735Z,7.50
2023-05-10T22:41:02.162Z,9.60
2023-05-10T22:43:29.515Z,15.75
2023-05-10T22:45:57.025Z,8.77
2023-05-10T22:48:24.431Z,5.93
2023-05-10T22:50:52.029Z,5.43
2023-05-10T22:53:19.378Z,8.02
2023-05-10T22:55:47.200Z,7.68
2023-05-10T22:58:14.572Z,10.60
2023-05-10T23:00:42.103Z,5.75
2023-05-10T23:03:09.700Z,6.53
2023-05-10T23:05:37.316Z,5.90
2023-05-10T23:08:04.796Z,5.68
2023-05-10T23:10:32.585Z,7.15
2023-05-10T23:12:59.965Z,7.25
2023-05-10T23:15:27.511Z,7.63
2023-05-10T23:17:54.986Z,6.65
2023-05-10T23:20:22.569Z,5.25
2023-05-10T23:22:50.067Z,7.28
2023-05-10T23:25:17.529Z,8.23
2023-05-10T23:27:44.904Z,8.10
2023-05-10T23:30:12.577Z,6.95
2023-05-10T23:32:39.999Z,6.07
2023-05-10T23:35:07.874Z,9.30
2023-05-10T23:37:36.176Z,6.38
2023-05-10T23:40:03.679Z,7.43
2023-05-10T23:42:31.226Z,5.85
2023-05-10T23:44:58.709Z,7.75
2023-05-10T23:47:26.123Z,7.60
2023-05-10T23:49:53.563Z,8.02
2023-05-10T23:52:25.172Z,7.03
2023-05-10T23:54:52.981Z,4.90
2023-05-10T23:57:20.814Z,8.77
2023-05-10T23:59:48.379Z,6.70
